createdAt,value
2022-08-23T00:01:00.640Z,17.00
2022-08-23T00:04:07.621Z,16.50
2022-08-23T00:07:12.631Z,17.25
2022-08-23T00:10:16.746Z,17.75
2022-08-23T00:13:19.229Z,17.00
2022-08-23T00:16:21.696Z,16.75
2022-08-23T00:19:24.823Z,19.00
2022-08-23T00:22:26.813Z,16.00
2022-08-23T00:25:29.132Z,17.50
2022-08-23T00:28:31.345Z,18.25
2022-08-23T00:31:33.771Z,16.75
2022-08-23T00:34:37.231Z,17.75
2022-08-23T00:37:39.981Z,16.00
2022-08-23T00:40:47.569Z,18.00
2022-08-23T00:44:09.144Z,16.00
2022-08-23T00:47:30.681Z,16.50
2022-08-23T00:50:59.918Z,16.00
2022-08-23T00:54:02.464Z,17.75
2022-08-23T00:57:09.566Z,17.00
2022-08-23T01:00:12.609Z,17.75
2022-08-23T01:03:15.777Z,16.75
2022-08-23T01:06:39.786Z,15.75
2022-08-23T01:09:42.732Z,18.00
2022-08-23T01:12:50.690Z,18.25
2022-08-23T01:16:01.214Z,15.50
2022-08-23T01:19:07.075Z,13.75
2022-08-23T01:22:30.279Z,16.50
2022-08-23T01:25:33.383Z,15.00
2022-08-23T01:28:36.321Z,16.00
2022-08-23T01:31:38.452Z,17.25
2022-08-23T01:34:45.378Z,19.00
2022-08-23T01:37:54.263Z,16.25
2022-08-23T01:40:57.322Z,12.50
2022-08-23T01:44:00.602Z,15.75
2022-08-23T01:47:04.304Z,17.50
2022-08-23T01:50:08.780Z,17.00
2022-08-23T01:53:11.241Z,16.25
2022-08-23T01:56:27.589Z,20.00
2022-08-23T01:59:44.040Z,18.50
2022-08-23T02:02:47.029Z,19.00
2022-08-23T02:05:49.848Z,21.00
2022-08-23T02:09:04.570Z,19.25
2022-08-23T02:12:12.729Z,21.75
2022-08-23T02:15:17.421Z,19.00
2022-08-23T02:18:22.774Z,18.75
2022-08-23T02:21:26.362Z,19.25
2022-08-23T02:24:28.640Z,17.25
2022-08-23T02:27:30.790Z,20.25
2022-08-23T02:30:33.235Z,20.75
2022-08-23T02:33:36.313Z,16.25
2022-08-23T02:36:40.086Z,18.25
2022-08-23T02:39:44.194Z,18.50
2022-08-23T02:42:47.247Z,20.75
2022-08-23T02:45:51.647Z,18.75
2022-08-23T02:48:54.343Z,20.75
2022-08-23T02:51:57.167Z,20.25
2022-08-23T02:55:00.073Z,19.00
2022-08-23T02:58:02.346Z,20.00
2022-08-23T03:01:04.789Z,18.00
2022-08-23T03:04:09.463Z,18.75
2022-08-23T03:07:13.323Z,19.75
2022-08-23T03:10:16.896Z,21.00
2022-08-23T03:13:25.559Z,18.00
2022-08-23T03:16:28.134Z,16.25
2022-08-23T03:19:30.481Z,17.00
2022-08-23T03:22:33.048Z,18.00
2022-08-23T03:25:35.403Z,20.50
2022-08-23T03:28:56.645Z,18.75
2022-08-23T03:32:04.844Z,19.50
2022-08-23T03:35:15.085Z,17.00
2022-08-23T03:38:19.660Z,17.75
2022-08-23T03:41:22.916Z,19.75
2022-08-23T03:44:25.231Z,18.50
2022-08-23T03:47:28.341Z,18.50
2022-08-23T03:50:30.776Z,16.75
2022-08-23T03:53:32.827Z,19.75
2022-08-23T03:56:38.689Z,19.75
2022-08-23T03:59:42.564Z,19.25
2022-08-23T04:02:47.013Z,17.50
2022-08-23T04:05:49.765Z,17.00
2022-08-23T04:08:54.945Z,18.00
2022-08-23T04:11:57.891Z,15.00
2022-08-23T04:15:02.305Z,17.00
2022-08-23T04:18:06.352Z,19.25
2022-08-23T04:21:17.404Z,19.00
2022-08-23T04:24:19.461Z,18.50
2022-08-23T04:27:22.227Z,20.50
2022-08-23T04:30:24.549Z,19.00
2022-08-23T04:33:31.784Z,21.00
2022-08-23T04:36:38.203Z,20.75
2022-08-23T04:39:59.555Z,20.50
2022-08-23T04:43:08.654Z,20.00
2022-08-23T04:46:14.641Z,20.00
2022-08-23T04:49:17.494Z,18.75
2022-08-23T04:52:24.940Z,19.50
2022-08-23T04:55:27.206Z,20.00
2022-08-23T04:58:42.441Z,21.00
2022-08-23T05:01:44.557Z,21.00
2022-08-23T05:04:48.784Z,21.00
2022-08-23T05:07:51.413Z,19.50
2022-08-23T05:10:54.138Z,19.00
2022-08-23T05:13:56.750Z,18.50
2022-08-23T05:16:59.116Z,20.00
2022-08-23T05:20:02.426Z,19.25
2022-08-23T05:23:05.795Z,21.00
2022-08-23T05:26:11.661Z,19.25
2022-08-23T05:29:17.123Z,20.25
2022-08-23T05:32:23.040Z,21.00
2022-08-23T05:35:25.289Z,18.50
2022-08-23T05:38:28.006Z,20.25
2022-08-23T05:41:37.745Z,18.50
2022-08-23T05:44:43.333Z,19.25
2022-08-23T05:47:46.490Z,21.00
2022-08-23T05:51:20.671Z,18.50
2022-08-23T05:54:22.909Z,19.00
2022-08-23T05:57:41.203Z,20.00
2022-08-23T06:00:43.540Z,20.00
2022-08-23T06:03:46.619Z,19.00
2022-08-23T06:06:49.409Z,18.00
2022-08-23T06:09:52.528Z,18.67
2022-08-23T06:12:54.819Z,20.00
2022-08-23T06:15:58.135Z,20.00
2022-08-23T06:19:04.128Z,16.67
2022-08-23T06:22:38.497Z,17.00
2022-08-23T06:25:41.144Z,18.67
2022-08-23T06:28:51.636Z,17.00
2022-08-23T06:31:54.685Z,17.00
2022-08-23T06:35:18.137Z,19.00
2022-08-23T06:38:31.815Z,18.67
2022-08-23T06:42:34.422Z,17.67
2022-08-23T06:45:37.113Z,16.67
2022-08-23T06:48:39.751Z,17.00
2022-08-23T06:51:44.922Z,18.33
2022-08-23T06:54:53.351Z,16.67
2022-08-23T06:58:14.397Z,18.00
2022-08-23T07:01:45.635Z,16.33
2022-08-23T07:05:02.258Z,17.00
2022-08-23T07:08:21.211Z,14.00
2022-08-23T07:11:23.920Z,16.00
2022-08-23T07:14:26.324Z,14.00
2022-08-23T07:17:29.533Z,15.33
2022-08-23T07:20:31.731Z,14.00
2022-08-23T07:23:35.278Z,15.33
2022-08-23T07:26:42.162Z,15.00
2022-08-23T07:29:45.811Z,15.00
2022-08-23T07:32:48.443Z,18.33
2022-08-23T07:36:03.417Z,15.67
2022-08-23T07:39:06.904Z,14.33
2022-08-23T07:42:23.364Z,16.33
2022-08-23T07:45:30.214Z,14.33
2022-08-23T07:48:53.566Z,15.00
2022-08-23T07:52:03.675Z,13.00
2022-08-23T07:55:07.411Z,13.67
2022-08-23T07:58:28.259Z,13.33
2022-08-23T08:01:45.985Z,16.00
2022-08-23T08:04:48.369Z,16.00
2022-08-23T08:07:51.051Z,14.00
2022-08-23T08:10:56.047Z,14.00
2022-08-23T08:13:58.888Z,13.67
2022-08-23T08:17:03.818Z,14.33
2022-08-23T08:20:21.946Z,7.67
2022-08-23T08:23:42.661Z,13.33
2022-08-23T08:27:08.664Z,13.67
2022-08-23T08:30:11.799Z,12.00
2022-08-23T08:33:14.954Z,14.00
2022-08-23T08:36:30.600Z,12.00
2022-08-23T08:39:34.271Z,12.00
2022-08-23T08:43:14.135Z,15.00
2022-08-23T08:46:23.309Z,12.67
2022-08-23T08:49:52.670Z,13.67
2022-08-23T08:53:06.808Z,14.00
2022-08-23T08:56:34.981Z,15.00
2022-08-23T09:00:06.384Z,15.33
2022-08-23T09:03:20.607Z,17.00
2022-08-23T09:07:01.246Z,15.67
2022-08-23T09:10:28.228Z,15.00
2022-08-23T09:13:53.673Z,16.00
2022-08-23T09:17:11.107Z,13.75
2022-08-23T09:20:15.492Z,14.00
2022-08-23T09:23:32.226Z,14.00
2022-08-23T09:26:35.687Z,13.50
2022-08-23T09:29:40.728Z,17.00
2022-08-23T09:32:45.863Z,15.75
2022-08-23T09:36:15.524Z,15.00
2022-08-23T09:39:34.779Z,13.50
2022-08-23T09:42:42.317Z,13.75
2022-08-23T09:45:51.679Z,16.00
2022-08-23T09:48:59.246Z,16.25
2022-08-23T09:52:27.517Z,16.25
2022-08-23T09:55:42.372Z,15.75
2022-08-23T09:58:47.140Z,17.00
2022-08-23T10:01:58.577Z,15.25
2022-08-23T10:05:03.120Z,14.00
2022-08-23T10:08:10.733Z,13.75
2022-08-23T10:11:19.043Z,14.00
2022-08-23T10:14:26.801Z,16.00
2022-08-23T10:17:45.496Z,16.25
2022-08-23T10:21:10.934Z,15.00
2022-08-23T10:24:34.667Z,15.25
2022-08-23T10:27:59.363Z,14.75
2022-08-23T10:31:04.985Z,17.25
2022-08-23T10:34:50.576Z,15.00
2022-08-23T10:38:15.733Z,16.00
2022-08-23T10:41:21.945Z,16.50
2022-08-23T10:44:26.225Z,15.00
2022-08-23T10:47:42.038Z,13.50
2022-08-23T10:50:55.947Z,9.00
2022-08-23T10:54:06.457Z,15.25
2022-08-23T10:57:09.760Z,16.75
2022-08-23T11:00:18.595Z,17.00
2022-08-23T11:04:08.068Z,12.75
2022-08-23T11:07:38.494Z,15.00
2022-08-23T11:10:56.101Z,14.00
2022-08-23T11:14:04.337Z,12.00
2022-08-23T11:17:32.678Z,14.25
2022-08-23T11:20:53.869Z,12.75
2022-08-23T11:24:05.686Z,12.00
2022-08-23T11:27:26.291Z,12.00
2022-08-23T11:30:32.283Z,9.00
2022-08-23T11:33:48.695Z,10.00
2022-08-23T11:37:24.895Z,8.80
2022-08-23T11:40:37.763Z,8.60
2022-08-23T11:43:42.331Z,8.20
2022-08-23T11:46:48.578Z,9.00
2022-08-23T11:50:17.275Z,8.80
2022-08-23T11:53:22.074Z,7.80
2022-08-23T11:56:30.316Z,8.60
2022-08-23T11:59:38.494Z,9.80
2022-08-23T12:03:07.511Z,8.60
2022-08-23T12:06:22.492Z,8.40
2022-08-23T12:09:25.517Z,10.00
2022-08-23T12:12:34.809Z,8.00
2022-08-23T12:16:19.388Z,9.00
2022-08-23T12:19:34.870Z,9.80
2022-08-23T12:23:02.641Z,6.60
2022-08-23T12:26:11.228Z,9.20
2022-08-23T12:29:51.081Z,7.40
2022-08-23T12:32:55.040Z,7.80
2022-08-23T12:36:16.459Z,7.80
2022-08-23T12:39:24.129Z,7.80
2022-08-23T12:42:32.400Z,6.80
2022-08-23T12:45:44.444Z,6.80
2022-08-23T12:48:47.274Z,7.60
2022-08-23T12:51:51.048Z,7.00
2022-08-23T12:54:58.791Z,7.40
2022-08-23T12:58:01.937Z,6.80
2022-08-23T13:01:18.251Z,7.00
2022-08-23T13:04:20.438Z,5.80
2022-08-23T13:07:24.103Z,7.00
2022-08-23T13:10:26.637Z,6.20
2022-08-23T13:13:29.196Z,6.40
2022-08-23T13:16:41.759Z,6.20
2022-08-23T13:19:48.334Z,8.00
2022-08-23T13:23:05.562Z,9.00
2022-08-23T13:26:29.622Z,7.80
2022-08-23T13:29:32.468Z,7.40
2022-08-23T13:32:39.849Z,8.40
2022-08-23T13:35:49.639Z,7.75
2022-08-23T13:38:52.643Z,7.75
2022-08-23T13:41:55.655Z,9.20
2022-08-23T13:44:58.166Z,9.25
2022-08-23T13:48:08.284Z,7.50
2022-08-23T13:51:28.862Z,8.00
2022-08-23T13:54:31.437Z,8.00
2022-08-23T13:57:37.141Z,9.75
2022-08-23T14:00:39.580Z,9.00
2022-08-23T14:03:48.337Z,7.75
2022-08-23T14:06:50.393Z,8.00
2022-08-23T14:09:55.084Z,8.00
2022-08-23T14:12:57.632Z,8.25
2022-08-23T14:22:49.039Z,8.00
2022-08-23T14:25:55.028Z,8.00
2022-08-23T14:28:57.580Z,8.75
2022-08-23T14:32:00.149Z,8.00
2022-08-23T14:35:05.521Z,7.25
2022-08-23T14:38:13.335Z,9.00
2022-08-23T14:41:22.762Z,8.00
2022-08-23T14:44:27.890Z,7.25
2022-08-23T14:47:35.509Z,10.00
2022-08-23T14:50:37.758Z,9.00
2022-08-23T14:53:40.268Z,8.25
2022-08-23T14:56:42.412Z,9.75
2022-08-23T14:59:44.938Z,9.50
2022-08-23T15:02:48.746Z,10.25
2022-08-23T15:05:53.080Z,8.75
2022-08-23T15:08:55.354Z,11.33
2022-08-23T15:15:21.959Z,7.67
2022-08-23T15:18:26.214Z,8.00
2022-08-23T15:21:30.582Z,8.33
2022-08-23T15:24:33.229Z,7.33
2022-08-23T15:27:36.163Z,9.00
2022-08-23T15:30:38.849Z,9.00
2022-08-23T15:33:41.355Z,9.00
2022-08-23T15:36:43.879Z,9.00
2022-08-23T15:39:46.220Z,8.33
2022-08-23T15:42:49.064Z,7.00
2022-08-23T15:45:51.187Z,11.00
2022-08-23T15:49:01.987Z,11.33
2022-08-23T15:52:04.696Z,9.33
2022-08-23T15:55:08.117Z,9.00
2022-08-23T15:58:15.740Z,9.00
2022-08-23T16:01:21.710Z,10.00
2022-08-23T16:04:26.154Z,9.00
2022-08-23T16:07:32.619Z,9.67
2022-08-23T16:10:35.045Z,8.00
2022-08-23T16:13:40.833Z,10.00
2022-08-23T16:16:46.402Z,9.00
2022-08-23T16:19:48.857Z,11.00
2022-08-23T16:22:51.675Z,10.00
2022-08-23T16:25:56.865Z,10.33
2022-08-23T16:29:06.659Z,9.33
2022-08-23T16:32:08.967Z,10.33
2022-08-23T16:35:11.001Z,10.33
2022-08-23T16:38:13.473Z,10.33
2022-08-23T16:41:15.553Z,8.00
2022-08-23T16:44:17.940Z,10.00
2022-08-23T16:47:20.172Z,10.67
2022-08-23T16:50:22.632Z,9.00
2022-08-23T16:53:26.841Z,10.00
2022-08-23T16:56:29.824Z,8.00
2022-08-23T16:59:31.976Z,9.67
2022-08-23T17:02:36.365Z,11.00
2022-08-23T17:05:38.851Z,9.67
2022-08-23T17:08:41.333Z,9.33
2022-08-23T17:11:44.320Z,10.33
2022-08-23T17:14:48.879Z,9.67
2022-08-23T17:17:51.414Z,10.67
2022-08-23T17:20:53.816Z,10.33
2022-08-23T17:23:55.900Z,11.00
2022-08-23T17:26:58.580Z,11.00
2022-08-23T17:30:00.845Z,11.33
2022-08-23T17:33:03.283Z,11.33
2022-08-23T17:36:07.176Z,10.00
2022-08-23T17:39:12.737Z,10.67
2022-08-23T17:42:14.891Z,12.00
2022-08-23T17:45:18.017Z,10.00
2022-08-23T17:48:21.894Z,10.67
2022-08-23T17:51:24.558Z,10.00
2022-08-23T17:54:26.674Z,11.00
2022-08-23T17:57:30.361Z,11.00
2022-08-23T18:00:37.105Z,11.00
2022-08-23T18:03:39.324Z,9.00
2022-08-23T18:06:41.644Z,11.33
2022-08-23T18:09:45.089Z,12.67
2022-08-23T18:12:51.101Z,12.00
2022-08-23T18:15:53.778Z,10.00
2022-08-23T18:18:57.222Z,7.00
2022-08-23T18:22:02.268Z,11.00
2022-08-23T18:25:07.058Z,11.00
2022-08-23T18:28:11.106Z,11.67
2022-08-23T18:31:15.201Z,11.00
2022-08-23T18:34:18.015Z,11.33
2022-08-23T18:37:21.777Z,11.67
2022-08-23T18:40:25.430Z,12.67
2022-08-23T18:43:37.066Z,14.00
2022-08-23T18:46:41.299Z,13.00
2022-08-23T18:49:43.406Z,12.33
2022-08-23T18:52:45.742Z,12.00
2022-08-23T18:55:49.942Z,13.67
2022-08-23T18:58:52.473Z,12.00
2022-08-23T19:01:55.267Z,12.33
2022-08-23T19:04:57.597Z,11.67
2022-08-23T19:07:59.782Z,10.67
2022-08-23T19:11:02.300Z,12.67
2022-08-23T19:14:05.875Z,11.33
2022-08-23T19:17:08.250Z,10.33
2022-08-23T19:20:11.146Z,11.00
2022-08-23T19:23:13.619Z,10.67
2022-08-23T19:26:18.862Z,11.00
2022-08-23T19:29:21.957Z,12.00
2022-08-23T19:32:24.314Z,10.33
2022-08-23T19:35:28.963Z,11.00
2022-08-23T19:38:31.959Z,11.00
2022-08-23T19:41:38.792Z,10.33
2022-08-23T19:44:41.043Z,10.33
2022-08-23T19:47:43.410Z,11.00
2022-08-23T19:50:46.271Z,12.00
2022-08-23T19:54:11.612Z,10.67
2022-08-23T19:57:14.164Z,11.67
2022-08-23T20:00:19.602Z,12.67
2022-08-23T20:03:22.161Z,12.00
2022-08-23T20:06:24.674Z,14.00
2022-08-23T20:09:29.252Z,14.00
2022-08-23T20:12:33.278Z,14.67
2022-08-23T20:15:40.773Z,15.00
2022-08-23T20:18:44.032Z,14.00
2022-08-23T20:21:46.281Z,14.00
2022-08-23T20:24:51.941Z,14.00
2022-08-23T20:27:54.603Z,11.00
2022-08-23T20:30:57.961Z,11.00
2022-08-23T20:34:00.527Z,12.00
2022-08-23T20:37:03.392Z,13.00
2022-08-23T20:40:10.102Z,12.33
2022-08-23T20:43:12.514Z,12.00
2022-08-23T20:46:15.189Z,11.00
2022-08-23T20:49:18.440Z,14.00
2022-08-23T20:52:20.574Z,12.00
2022-08-23T20:55:24.103Z,11.00
2022-08-23T20:58:27.296Z,11.00
2022-08-23T21:01:29.732Z,11.00
2022-08-23T21:04:31.796Z,11.33
2022-08-23T21:07:34.265Z,12.00
2022-08-23T21:10:36.516Z,13.00
2022-08-23T21:13:44.027Z,13.67
2022-08-23T21:16:47.388Z,9.33
2022-08-23T21:19:49.728Z,12.00
2022-08-23T21:22:51.741Z,11.33
2022-08-23T21:25:55.055Z,11.33
2022-08-23T21:28:57.188Z,12.00
2022-08-23T21:31:59.468Z,11.00
2022-08-23T21:35:02.175Z,12.67
2022-08-23T21:38:04.506Z,11.33
2022-08-23T21:41:10.184Z,11.00
2022-08-23T21:44:15.810Z,12.00
2022-08-23T21:47:19.598Z,12.00
2022-08-23T21:50:24.592Z,13.00
2022-08-23T21:53:30.983Z,10.00
2022-08-23T21:56:33.343Z,12.00
2022-08-23T21:59:35.411Z,12.00
2022-08-23T22:02:37.734Z,10.00
2022-08-23T22:05:40.907Z,12.00
2022-08-23T22:08:44.021Z,12.33
2022-08-23T22:11:47.764Z,13.00
2022-08-23T22:14:49.985Z,11.67
2022-08-23T22:17:51.999Z,12.00
2022-08-23T22:20:55.115Z,12.67
2022-08-23T22:23:57.257Z,10.67
2022-08-23T22:26:59.631Z,10.33
2022-08-23T22:30:01.863Z,12.00
2022-08-23T22:33:04.667Z,12.33
2022-08-23T22:36:10.881Z,13.00
2022-08-23T22:39:13.261Z,12.00
2022-08-23T22:42:16.345Z,10.00
2022-08-23T22:45:19.122Z,12.00
2022-08-23T22:48:21.835Z,12.00
2022-08-23T22:51:27.423Z,10.00
2022-08-23T22:54:29.573Z,11.00
2022-08-23T22:57:31.902Z,13.00
2022-08-23T23:00:40.527Z,13.33
2022-08-23T23:03:44.849Z,11.33
2022-08-23T23:06:46.939Z,10.00
2022-08-23T23:09:49.307Z,11.00
2022-08-23T23:12:51.322Z,12.00
2022-08-23T23:15:56.956Z,11.67
2022-08-23T23:19:18.506Z,12.00
2022-08-23T23:22:20.841Z,11.33
2022-08-23T23:25:23.063Z,11.33
2022-08-23T23:28:25.767Z,10.00
2022-08-23T23:31:27.940Z,11.33
2022-08-23T23:34:30.178Z,11.00
2022-08-23T23:37:32.354Z,10.33
2022-08-23T23:40:34.873Z,10.00
2022-08-23T23:43:36.900Z,10.33
2022-08-23T23:46:40.015Z,11.33
2022-08-23T23:49:42.186Z,11.67
2022-08-23T23:52:45.579Z,11.00
2022-08-23T23:55:48.730Z,10.00
2022-08-23T23:58:54.958Z,12.00
